(°C)
17°
17°
17°
16°
16°
15°
14°
(°C)
15°
14°
14°
12°
12°
11°
10°
J
J
JZ
Z
ZJZ
ZJZ
ZJZ
(km/h)
16-29
17-31
19-32
25-37
23-35
21-37
18-37
(mm)
2.9
0.4
0
0
0
0
0
(%)
57
52
49
21
16
16
7

Výška Slnka nad obzorom

/ -13.4°
sun-icon
UV 5
05:13
21:24
Ubúdajúci kosáčik (279°)
03:15
13:09

Správy METAR pre lokalitu Bordenau (ETNW)

Čas Podmienky Teplota/
Rosný bod
Vietor Viditeľnosť Počasie Oblaky Tlak Zmeniť Nespracované
VFR 17°C / 15°C 150º 10kt >10km Light Rain 1.00mm precipitation Vertical Visibility of 0ft.
Broken Clouds 6000ft
996 - ETNW 232120Z 15010KT 9999 -RA FEW040 BKN060 17/15 Q0996 BLU
VFR 18°C / 15°C 140º 7kt >10km Light Rain 1.00mm precipitation Vertical Visibility of 0ft.
Broken Clouds 6000ft
997 - ETNW 232020Z 14007KT 9999 -RA SCT040 BKN060 18/15 Q0997 BLU
VFR 21°C / 11°C 130º 8kt >10km - Few Clouds 7000ft
Broken Clouds 10000ft
997 - ETNW 231920Z 13008KT 9999 FEW070 BKN100 21/11 Q0997 BLU
VFR 22°C / 11°C 120º 8kt >10km - Scattered Clouds 5600ft
Broken Clouds 9000ft
998 - ETNW 231820Z 12008KT 9999 SCT056 BKN090 22/11 Q0998 BLU
VFR 23°C / 11°C 150º 13kt >10km - Broken Clouds 9000ft
Broken Clouds 20000ft
998 - ETNW 231720Z 15013KT 9999 BKN090 BKN200 23/11 Q0998 BLU FCST CNL
VFR 23°C / 11°C 150º 15kt Gust 25kt >10km - Broken Clouds 8000ft
Broken Clouds 20000ft
999 - ETNW 231620Z 15015G25KT 9999 BKN080 BKN200 23/11 Q0999 BLU BLU
VFR 24°C / 11°C 140º 13kt >10km - Few Clouds 5600ft
Scattered Clouds 16000ft
Broken Clouds 18000ft
1000 - ETNW 231520Z 14013KT 9999 FEW056 SCT160 BKN180 24/11 Q1000 BLU BLU+
VFR 25°C / 11°C 150º 15kt >10km - Few Clouds 5600ft
Scattered Clouds 16000ft
Broken Clouds 20000ft
1001 - ETNW 231420Z 15015KT 9999 FEW056 SCT160 BKN200 25/11 Q1001 BLU+BLU+
VFR 24°C / 11°C 140º 15kt >10km - Scattered Clouds 13000ft
Broken Clouds 20000ft
1002 - ETNW 231320Z 14015KT 9999 SCT130 BKN200 24/11 Q1002 BLU+BLU+
VFR 23°C / 10°C 120º 15kt >10km - Broken Clouds 13000ft
Broken Clouds 20000ft
1003 - ETNW 231220Z 12015KT 9999 BKN130 BKN200 23/10 Q1003 BLU BLU
VFR 23°C / 10°C 130º 12kt >10km - Broken Clouds 12000ft
Broken Clouds 20000ft
1004 - ETNW 231120Z 13012KT 9999 BKN120 BKN200 23/10 Q1004 BLU BLU
VFR 20°C / 10°C 130º 9kt >10km - Broken Clouds 12000ft 1005 - ETNW 231020Z 13009KT 9999 BKN120 20/10 Q1005 BLU BLU
VFR 18°C / 9°C 120º 10kt >10km - Broken Clouds 10000ft 1006 - ETNW 230920Z 12010KT 9999 BKN100 18/09 Q1006 BLU BLU
VFR 16°C / 9°C 120º 9kt >10km - Broken Clouds 10000ft 1006 - ETNW 230820Z 12009KT 9999 BKN100 16/09 Q1006 BLU BLU
VFR 15°C / 9°C 110º 7kt >10km - Broken Clouds 10000ft 1007 - ETNW 230720Z 11007KT 9999 BKN100 15/09 Q1007 BLU BLU
VFR 15°C / 8°C 130º 6kt >10km - Few Clouds 5000ft
Broken Clouds 10000ft
Broken Clouds 18000ft
1007 - ETNW 230620Z 13006KT 9999 FEW050 BKN100 BKN180 15/08 Q1007 BLU BLU
VFR 14°C / 8°C 110º 10kt >10km - Few Clouds 5000ft
Broken Clouds 10000ft
Broken Clouds 19000ft
1007 - ETNW 230520Z 11010KT 9999 FEW050 BKN100 BKN190 14/08 Q1007 BLU BLU
VFR 12°C / 8°C 110º 8kt >10km - Few Clouds 5000ft
Broken Clouds 10000ft
Broken Clouds 20000ft
1008 - ETNW 230420Z 11008KT 9999 FEW050 BKN100 BKN200 12/08 Q1008 BLU BLU
VFR 12°C / 7°C 110º 6kt >10km - Few Clouds 8500ft
Broken Clouds 13000ft
Broken Clouds 19000ft
1009 - ETNW 230320Z 11006KT 9999 FEW085 BKN130 BKN190 12/07 Q1009 BLU BLU
VFR 12°C / 7°C 110º 7kt >10km - Few Clouds 9000ft
Broken Clouds 19000ft
1009 - ETNW 230220Z 11007KT 9999 FEW090 BKN190 12/07 Q1009 BLU
VFR 12°C / 7°C 110º 6kt >10km - Scattered Clouds 9000ft
Broken Clouds 21000ft
1010 - ETNW 230120Z 11006KT 9999 SCT090 BKN210 12/07 Q1010 BLU+
VFR 13°C / 7°C 110º 5kt >10km - Broken Clouds 21000ft 1011 - ETNW 230020Z 11005KT 9999 BKN210 13/07 Q1011 BLU+
VFR 12°C / 8°C 120º 4kt >10km - Broken Clouds 24000ft 1011 - ETNW 222320Z 12004KT 9999 BKN240 12/08 Q1011 BLU+
VFR 13°C / 7°C 190º 3kt >10km - Broken Clouds 26000ft 1012 - ETNW 222220Z 19003KT 9999 BKN260 13/07 Q1012 BLU+

VFR

17°C / 15°C

[Viac]
Vietor 150º 10kt
Viditeľnosť >10km
Počasie Light Rain 1.00mm precipitation
Oblaky Vertical Visibility of 0ft.
Broken Clouds 6000ft
Tlak 996
Zmeniť -
Nespracované ETNW 232120Z 15010KT 9999 -RA FEW040 BKN060 17/15 Q0996 BLU

VFR

18°C / 15°C

[Viac]
Vietor 140º 7kt
Viditeľnosť >10km
Počasie Light Rain 1.00mm precipitation
Oblaky Vertical Visibility of 0ft.
Broken Clouds 6000ft
Tlak 997
Zmeniť -
Nespracované ETNW 232020Z 14007KT 9999 -RA SCT040 BKN060 18/15 Q0997 BLU

VFR

21°C / 11°C

[Viac]
Vietor 130º 8kt
Viditeľnosť >10km
Počasie -
Oblaky Few Clouds 7000ft
Broken Clouds 10000ft
Tlak 997
Zmeniť -
Nespracované ETNW 231920Z 13008KT 9999 FEW070 BKN100 21/11 Q0997 BLU

VFR

22°C / 11°C

[Viac]
Vietor 120º 8kt
Viditeľnosť >10km
Počasie -
Oblaky Scattered Clouds 5600ft
Broken Clouds 9000ft
Tlak 998
Zmeniť -
Nespracované ETNW 231820Z 12008KT 9999 SCT056 BKN090 22/11 Q0998 BLU

VFR

23°C / 11°C

[Viac]
Vietor 150º 13kt
Viditeľnosť >10km
Počasie -
Oblaky Broken Clouds 9000ft
Broken Clouds 20000ft
Tlak 998
Zmeniť -
Nespracované ETNW 231720Z 15013KT 9999 BKN090 BKN200 23/11 Q0998 BLU FCST CNL

VFR

23°C / 11°C

[Viac]
Vietor 150º 15kt Gust 25kt
Viditeľnosť >10km
Počasie -
Oblaky Broken Clouds 8000ft
Broken Clouds 20000ft
Tlak 999
Zmeniť -
Nespracované ETNW 231620Z 15015G25KT 9999 BKN080 BKN200 23/11 Q0999 BLU BLU

VFR

24°C / 11°C

[Viac]
Vietor 140º 13kt
Viditeľnosť >10km
Počasie -
Oblaky Few Clouds 5600ft
Scattered Clouds 16000ft
Broken Clouds 18000ft
Tlak 1000
Zmeniť -
Nespracované ETNW 231520Z 14013KT 9999 FEW056 SCT160 BKN180 24/11 Q1000 BLU BLU+

VFR

25°C / 11°C

[Viac]
Vietor 150º 15kt
Viditeľnosť >10km
Počasie -
Oblaky Few Clouds 5600ft
Scattered Clouds 16000ft
Broken Clouds 20000ft
Tlak 1001
Zmeniť -
Nespracované ETNW 231420Z 15015KT 9999 FEW056 SCT160 BKN200 25/11 Q1001 BLU+BLU+

VFR

24°C / 11°C

[Viac]
Vietor 140º 15kt
Viditeľnosť >10km
Počasie -
Oblaky Scattered Clouds 13000ft
Broken Clouds 20000ft
Tlak 1002
Zmeniť -
Nespracované ETNW 231320Z 14015KT 9999 SCT130 BKN200 24/11 Q1002 BLU+BLU+

VFR

23°C / 10°C

[Viac]
Vietor 120º 15kt
Viditeľnosť >10km
Počasie -
Oblaky Broken Clouds 13000ft
Broken Clouds 20000ft
Tlak 1003
Zmeniť -
Nespracované ETNW 231220Z 12015KT 9999 BKN130 BKN200 23/10 Q1003 BLU BLU

VFR

23°C / 10°C

[Viac]
Vietor 130º 12kt
Viditeľnosť >10km
Počasie -
Oblaky Broken Clouds 12000ft
Broken Clouds 20000ft
Tlak 1004
Zmeniť -
Nespracované ETNW 231120Z 13012KT 9999 BKN120 BKN200 23/10 Q1004 BLU BLU

VFR

20°C / 10°C

[Viac]
Vietor 130º 9kt
Viditeľnosť >10km
Počasie -
Oblaky Broken Clouds 12000ft
Tlak 1005
Zmeniť -
Nespracované ETNW 231020Z 13009KT 9999 BKN120 20/10 Q1005 BLU BLU

VFR

18°C / 9°C

[Viac]
Vietor 120º 10kt
Viditeľnosť >10km
Počasie -
Oblaky Broken Clouds 10000ft
Tlak 1006
Zmeniť -
Nespracované ETNW 230920Z 12010KT 9999 BKN100 18/09 Q1006 BLU BLU

VFR

16°C / 9°C

[Viac]
Vietor 120º 9kt
Viditeľnosť >10km
Počasie -
Oblaky Broken Clouds 10000ft
Tlak 1006
Zmeniť -
Nespracované ETNW 230820Z 12009KT 9999 BKN100 16/09 Q1006 BLU BLU

VFR

15°C / 9°C

[Viac]
Vietor 110º 7kt
Viditeľnosť >10km
Počasie -
Oblaky Broken Clouds 10000ft
Tlak 1007
Zmeniť -
Nespracované ETNW 230720Z 11007KT 9999 BKN100 15/09 Q1007 BLU BLU

VFR

15°C / 8°C

[Viac]
Vietor 130º 6kt
Viditeľnosť >10km
Počasie -
Oblaky Few Clouds 5000ft
Broken Clouds 10000ft
Broken Clouds 18000ft
Tlak 1007
Zmeniť -
Nespracované ETNW 230620Z 13006KT 9999 FEW050 BKN100 BKN180 15/08 Q1007 BLU BLU

VFR

14°C / 8°C

[Viac]
Vietor 110º 10kt
Viditeľnosť >10km
Počasie -
Oblaky Few Clouds 5000ft
Broken Clouds 10000ft
Broken Clouds 19000ft
Tlak 1007
Zmeniť -
Nespracované ETNW 230520Z 11010KT 9999 FEW050 BKN100 BKN190 14/08 Q1007 BLU BLU

VFR

12°C / 8°C

[Viac]
Vietor 110º 8kt
Viditeľnosť >10km
Počasie -
Oblaky Few Clouds 5000ft
Broken Clouds 10000ft
Broken Clouds 20000ft
Tlak 1008
Zmeniť -
Nespracované ETNW 230420Z 11008KT 9999 FEW050 BKN100 BKN200 12/08 Q1008 BLU BLU

VFR

12°C / 7°C

[Viac]
Vietor 110º 6kt
Viditeľnosť >10km
Počasie -
Oblaky Few Clouds 8500ft
Broken Clouds 13000ft
Broken Clouds 19000ft
Tlak 1009
Zmeniť -
Nespracované ETNW 230320Z 11006KT 9999 FEW085 BKN130 BKN190 12/07 Q1009 BLU BLU

VFR

12°C / 7°C

[Viac]
Vietor 110º 7kt
Viditeľnosť >10km
Počasie -
Oblaky Few Clouds 9000ft
Broken Clouds 19000ft
Tlak 1009
Zmeniť -
Nespracované ETNW 230220Z 11007KT 9999 FEW090 BKN190 12/07 Q1009 BLU

VFR

12°C / 7°C

[Viac]
Vietor 110º 6kt
Viditeľnosť >10km
Počasie -
Oblaky Scattered Clouds 9000ft
Broken Clouds 21000ft
Tlak 1010
Zmeniť -
Nespracované ETNW 230120Z 11006KT 9999 SCT090 BKN210 12/07 Q1010 BLU+

VFR

13°C / 7°C

[Viac]
Vietor 110º 5kt
Viditeľnosť >10km
Počasie -
Oblaky Broken Clouds 21000ft
Tlak 1011
Zmeniť -
Nespracované ETNW 230020Z 11005KT 9999 BKN210 13/07 Q1011 BLU+

VFR

12°C / 8°C

[Viac]
Vietor 120º 4kt
Viditeľnosť >10km
Počasie -
Oblaky Broken Clouds 24000ft
Tlak 1011
Zmeniť -
Nespracované ETNW 222320Z 12004KT 9999 BKN240 12/08 Q1011 BLU+

VFR

13°C / 7°C

[Viac]
Vietor 190º 3kt
Viditeľnosť >10km
Počasie -
Oblaky Broken Clouds 26000ft
Tlak 1012
Zmeniť -
Nespracované ETNW 222220Z 19003KT 9999 BKN260 13/07 Q1012 BLU+

Správy TAF pre lokalitu Bordenau (ETNW)

From till


From till Wind 130º 10kt. Gust 20kt. Visibility 10km or more. Broken Clouds 10000ft.
With 30% probability, from till Wind 200º 15kt. Gust 35kt. Visibility 1500m. Thunderstorm Rain . Scattered Clouds 1000ft. Broken Clouds 4000ft.
Temporarly from till Wind 180º 15kt. Gust 25kt. Visibility 3000m. Showers Rain . Scattered Clouds 2000ft. Broken Clouds 5000ft.
Becoming from till Wind 250º 10kt. Visibility 10km or more. Broken Clouds 3000ft.
Temporarly from till Wind 240º 15kt. Gust 25kt. Visibility 4000m. Light Rain . Broken Clouds 1000ft.
With 30% probability, from till Wind 240º 15kt. Gust 30kt. Visibility 3000m. Light Showers Rain . Broken Clouds 500ft. Broken Clouds 2000ft.

Nespracované: TAF ETNW 231607Z 2317/2417 13010G20KT 9999 NSW BKN100 PROB30 2317/2323 20015G35KT 1500 TSRA SCT010 BKN040CB TEMPO 2317/2401 18015G25KT 3000 SHRA SCT020 BKN050CB BECMG 2323/2401 25010KT 9999 NSW BKN030 TEMPO 2401/2408 24015G25KT 4000 -RA BKN010 PROB30 2401/2411 24015G30KT 3000 -SHRA BKN005 BKN020TCU BY ETGL

rainNOW: Predpoveď dažďa pre Bordenau a okolie (v okruhu 25 km)

0.0 mm
0.0 mm
0.0 mm
0.0 mm
0.0 mm
0.0 mm
0.0 mm
0.0 mm
0.0 mm
0.0 mm
0.0 mm
0.0 mm

Radar pre Bordenau

Mrholenie
Slabý
Mierne
Ťažké
Veľmi ťažké
Krúpy

Značka polohy je umiestnená na Bordenau. Táto animácia ukazuje zrážky pozorované radarom za poslednú hodinu a tiež 2h predpoveď. Mrholenie alebo slabé sneženie môže byť pre radar neviditeľné. Intenzita zrážok je farebne označená od svetlomodrej po oranžovú.
Copyright 2022 Deutscher Wetterdienst / meteoblue.

Aktuálne satelitné snímky a snímky zrážok pre lokalitu Bordenau, Nemecko

Značka polohy je umiestnená naBordenau. [Viac]

Satelitné snímky zhotovované v reálnom čase využívajú viditeľné svetlo počas dňa a infračervené žiarenie počas noci. Vzhľadom na to, že infračervené žiarenie zisťuje teplotné rozdiely, snímka v noci nie je tmavá. Nízke oblaky a hmlu je, žiaľ, ťažké odlíšiť od prízemných teplôt, preto môžu byť počas noci takmer neviditeľné. Meteosat satelitné snímky pre Európu sú aktualizované v reálnom čase každých 5 minút. Snímky z GOES-16/GOES-17 (Severná a Južná Amerika) a Himawari (Ázia) sú aktualizované každých 10 minút.

Zrážky sú odhadované na základe radara a satelitov. V noci sú odhady zrážok zo satelitov menej presné než počas dňa. Oranžové krížiky označujú miesta, kde bol zaznamenaný blesk (za Európa).

Copyright 2022 EUMETSAT / meteoblue. Údaje o bleskoch poskytuje nowcast.

Späť nahor